createdAt,value
2023-02-27T00:00:14.835Z,9.54
2023-02-27T00:02:46.366Z,9.57
2023-02-27T00:05:13.939Z,9.76
2023-02-27T00:07:41.217Z,9.92
2023-02-27T00:10:09.254Z,9.82
2023-02-27T00:12:38.547Z,9.95
2023-02-27T00:15:11.243Z,10.06
2023-02-27T00:17:38.647Z,10.17
2023-02-27T00:20:06.611Z,9.97
2023-02-27T00:22:33.790Z,9.97
2023-02-27T00:25:01.300Z,9.98
2023-02-27T00:27:28.473Z,9.63
2023-02-27T00:29:55.600Z,9.78
2023-02-27T00:32:23.291Z,9.29
2023-02-27T00:34:50.570Z,9.75
2023-02-27T00:37:17.928Z,9.80
2023-02-27T00:39:45.345Z,9.85
2023-02-27T00:42:12.469Z,9.95
2023-02-27T00:44:40.837Z,10.00
2023-02-27T00:47:08.228Z,9.79
2023-02-27T00:49:35.380Z,9.66
2023-02-27T00:52:02.507Z,9.64
2023-02-27T00:54:29.891Z,9.50
2023-02-27T00:56:57.061Z,9.85
2023-02-27T00:59:24.225Z,9.62
2023-02-27T01:01:52.681Z,9.96
2023-02-27T01:04:19.849Z,9.92
2023-02-27T01:06:46.975Z,9.59
2023-02-27T01:09:14.378Z,9.88
2023-02-27T01:11:41.542Z,9.81
2023-02-27T01:14:08.720Z,9.68
2023-02-27T01:16:36.205Z,9.59
2023-02-27T01:19:03.491Z,9.60
2023-02-27T01:21:30.640Z,9.61
2023-02-27T01:23:58.020Z,9.72
2023-02-27T01:26:25.298Z,9.44
2023-02-27T01:28:53.554Z,9.17
2023-02-27T01:31:20.989Z,9.17
2023-02-27T01:33:49.017Z,9.06
2023-02-27T01:36:16.232Z,8.97
2023-02-27T01:38:43.669Z,9.16
2023-02-27T01:41:10.841Z,9.11
2023-02-27T01:43:57.492Z,9.13
2023-02-27T01:46:25.160Z,9.31
2023-02-27T01:48:54.415Z,9.22
2023-02-27T01:51:21.573Z,8.97
2023-02-27T01:53:49.598Z,9.05
2023-02-27T01:56:18.324Z,9.18
2023-02-27T01:58:45.760Z,9.19
2023-02-27T02:01:13.512Z,9.05
2023-02-27T02:03:56.566Z,9.10
2023-02-27T02:06:23.762Z,9.09
2023-02-27T02:08:51.445Z,9.07
2023-02-27T02:11:19.409Z,9.00
2023-02-27T02:13:46.832Z,8.95
2023-02-27T02:16:26.085Z,9.02
2023-02-27T02:19:05.554Z,8.84
2023-02-27T02:21:42.495Z,8.91
2023-02-27T02:24:25.505Z,9.02
2023-02-27T02:27:04.597Z,8.93
2023-02-27T02:29:48.097Z,8.71
2023-02-27T02:32:24.550Z,8.63
2023-02-27T02:35:10.154Z,8.73
2023-02-27T02:37:52.609Z,8.59
2023-02-27T02:40:28.952Z,9.00
2023-02-27T02:43:02.294Z,8.88
2023-02-27T02:45:32.445Z,8.48
2023-02-27T02:48:02.707Z,8.55
2023-02-27T02:50:32.955Z,8.47
2023-02-27T02:53:22.180Z,8.68
2023-02-27T02:55:51.282Z,8.68
2023-02-27T02:58:26.146Z,8.71
2023-02-27T03:00:55.591Z,8.78
2023-02-27T03:03:25.200Z,8.58
2023-02-27T03:05:54.265Z,8.96
2023-02-27T03:08:22.634Z,9.08
2023-02-27T03:10:51.109Z,9.02
2023-02-27T03:13:21.224Z,8.59
2023-02-27T03:15:51.806Z,8.90
2023-02-27T03:18:24.662Z,8.89
2023-02-27T03:20:53.189Z,8.97
2023-02-27T03:23:30.503Z,9.17
2023-02-27T03:25:58.460Z,9.17
2023-02-27T03:28:27.366Z,9.09
2023-02-27T03:31:10.172Z,9.09
2023-02-27T03:33:39.231Z,9.10
2023-02-27T03:36:06.505Z,9.18
2023-02-27T03:38:41.065Z,9.08
2023-02-27T03:41:25.929Z,9.19
2023-02-27T03:44:20.682Z,9.19
2023-02-27T03:46:48.119Z,9.15
2023-02-27T03:49:15.558Z,9.11
2023-02-27T03:51:42.715Z,9.22
2023-02-27T03:54:11.464Z,9.21
2023-02-27T03:56:40.595Z,9.30
2023-02-27T03:59:08.819Z,9.17
2023-02-27T04:01:37.164Z,9.23
2023-02-27T04:04:06.867Z,9.05
2023-02-27T04:06:54.844Z,9.32
2023-02-27T04:09:29.291Z,8.94
2023-02-27T04:12:16.640Z,9.16
2023-02-27T04:14:47.795Z,8.99
2023-02-27T04:17:21.663Z,9.22
2023-02-27T04:20:10.517Z,9.34
2023-02-27T04:22:43.531Z,9.04
2023-02-27T04:25:29.563Z,9.07
2023-02-27T04:28:04.701Z,8.65
2023-02-27T04:30:50.730Z,9.15
2023-02-27T04:33:41.162Z,9.27
2023-02-27T04:36:08.575Z,9.16
2023-02-27T04:38:37.880Z,9.30
2023-02-27T04:41:15.910Z,9.32
2023-02-27T04:43:43.335Z,9.31
2023-02-27T04:46:11.007Z,9.40
2023-02-27T04:48:47.176Z,9.42
2023-02-27T04:51:15.590Z,9.40
2023-02-27T04:53:45.784Z,9.51
2023-02-27T04:56:27.816Z,9.30
2023-02-27T04:58:57.068Z,9.46
2023-02-27T05:01:34.992Z,9.43
2023-02-27T05:04:02.429Z,9.30
2023-02-27T05:06:30.561Z,9.47
2023-02-27T05:09:13.004Z,9.20
2023-02-27T05:11:51.456Z,9.38
2023-02-27T05:14:19.444Z,9.17
2023-02-27T05:16:49.790Z,9.25
2023-02-27T05:19:17.029Z,9.32
2023-02-27T05:21:55.486Z,9.60
2023-02-27T05:24:36.516Z,9.50
2023-02-27T05:27:03.596Z,9.32
2023-02-27T05:29:30.924Z,9.40
2023-02-27T05:32:05.778Z,9.47
2023-02-27T05:34:37.953Z,9.44
2023-02-27T05:37:07.497Z,9.48
2023-02-27T05:39:36.210Z,9.10
2023-02-27T05:42:23.611Z,9.55
2023-02-27T05:44:53.002Z,9.56
2023-02-27T05:47:20.974Z,9.56
2023-02-27T05:49:55.453Z,9.57
2023-02-27T05:52:23.585Z,9.45
2023-02-27T05:54:56.126Z,9.50
2023-02-27T05:57:24.713Z,9.37
2023-02-27T06:00:00.673Z,9.43
2023-02-27T06:02:28.229Z,9.22
2023-02-27T06:04:56.319Z,9.44
2023-02-27T06:07:23.470Z,9.62
2023-02-27T06:09:50.973Z,9.31
2023-02-27T06:12:19.478Z,9.27
2023-02-27T06:14:46.617Z,9.27
2023-02-27T06:17:13.727Z,9.11
2023-02-27T06:19:41.147Z,9.32
2023-02-27T06:22:09.092Z,9.34
2023-02-27T06:24:36.232Z,9.36
2023-02-27T06:27:03.750Z,9.33
2023-02-27T06:29:30.877Z,9.49
2023-02-27T06:31:58.038Z,9.66
2023-02-27T06:34:25.491Z,9.51
2023-02-27T06:36:52.641Z,9.51
2023-02-27T06:39:19.795Z,9.69
2023-02-27T06:41:47.228Z,9.64
2023-02-27T06:44:14.453Z,9.67
2023-02-27T06:46:41.667Z,9.73
2023-02-27T06:49:09.128Z,9.64
2023-02-27T06:51:36.265Z,9.79
2023-02-27T06:54:03.476Z,9.41
2023-02-27T06:56:30.883Z,9.71
2023-02-27T06:58:59.521Z,9.73
2023-02-27T07:01:26.855Z,9.74
2023-02-27T07:03:54.296Z,10.00
2023-02-27T07:06:21.540Z,9.89
2023-02-27T07:09:09.022Z,9.92
2023-02-27T07:11:36.180Z,10.06
2023-02-27T07:14:03.701Z,10.18
2023-02-27T07:16:31.189Z,9.89
2023-02-27T07:18:58.909Z,10.18
2023-02-27T07:21:26.062Z,10.37
2023-02-27T07:23:53.504Z,9.73
2023-02-27T07:26:20.612Z,9.98
2023-02-27T07:28:47.798Z,10.40
2023-02-27T07:31:15.343Z,10.61
2023-02-27T07:33:42.507Z,10.25
2023-02-27T07:36:09.693Z,10.51
2023-02-27T07:38:37.142Z,10.52
2023-02-27T07:41:04.303Z,10.36
2023-02-27T07:43:31.474Z,10.88
2023-02-27T07:45:59.517Z,11.04
2023-02-27T07:48:26.684Z,10.68
2023-02-27T07:50:53.879Z,10.84
2023-02-27T07:53:21.319Z,11.24
2023-02-27T07:55:48.505Z,12.10
2023-02-27T07:58:15.677Z,12.94
2023-02-27T08:00:43.108Z,12.20
2023-02-27T08:03:10.525Z,11.28
2023-02-27T08:05:37.658Z,10.33
2023-02-27T08:08:04.838Z,10.46
2023-02-27T08:10:32.269Z,10.25
2023-02-27T08:12:59.478Z,10.04
2023-02-27T08:15:26.655Z,9.43
2023-02-27T08:17:54.039Z,9.87
2023-02-27T08:20:24.389Z,10.19
2023-02-27T08:22:51.598Z,10.07
2023-02-27T08:25:19.231Z,10.12
2023-02-27T08:27:46.378Z,10.32
2023-02-27T08:30:13.740Z,10.59
2023-02-27T08:32:41.995Z,10.50
2023-02-27T08:35:09.340Z,10.16
2023-02-27T08:37:36.519Z,10.14
2023-02-27T08:40:06.875Z,10.78
2023-02-27T08:42:34.320Z,10.80
2023-02-27T08:45:01.448Z,9.21
2023-02-27T08:47:28.897Z,10.31
2023-02-27T08:49:56.550Z,10.82
2023-02-27T08:52:25.015Z,10.21
2023-02-27T08:54:52.552Z,8.88
2023-02-27T08:57:19.766Z,8.77
2023-02-27T08:59:46.955Z,8.29
2023-02-27T09:02:14.400Z,8.55
2023-02-27T09:04:41.778Z,8.08
2023-02-27T09:07:08.948Z,8.23
2023-02-27T09:09:36.353Z,7.87
2023-02-27T09:12:03.602Z,7.40
2023-02-27T09:14:30.733Z,7.41
2023-02-27T09:16:58.764Z,7.38
2023-02-27T09:19:25.945Z,7.29
2023-02-27T09:21:53.137Z,7.41
2023-02-27T09:24:21.080Z,6.98
2023-02-27T09:26:48.795Z,6.80
2023-02-27T09:29:16.248Z,6.70
2023-02-27T09:31:43.830Z,6.36
2023-02-27T09:34:11.072Z,6.45
2023-02-27T09:36:38.191Z,6.05
2023-02-27T09:39:05.622Z,5.92
2023-02-27T09:41:51.649Z,5.93
2023-02-27T09:44:46.792Z,5.56
2023-02-27T09:47:34.605Z,6.38
2023-02-27T09:50:20.388Z,6.67
2023-02-27T09:52:47.574Z,6.56
2023-02-27T09:55:19.893Z,7.10
2023-02-27T09:57:46.993Z,6.89
2023-02-27T10:00:22.651Z,6.07
2023-02-27T10:02:55.980Z,6.74
2023-02-27T10:05:27.229Z,6.87
2023-02-27T10:08:14.851Z,7.22
2023-02-27T10:10:44.840Z,7.46
2023-02-27T10:13:18.257Z,7.01
2023-02-27T10:15:49.036Z,6.53
2023-02-27T10:18:26.981Z,7.50
2023-02-27T10:20:58.513Z,8.21
2023-02-27T10:23:29.883Z,7.68
2023-02-27T10:25:57.123Z,7.83
2023-02-27T10:28:25.822Z,7.65
2023-02-27T10:30:54.790Z,7.60
2023-02-27T10:33:27.336Z,8.26
2023-02-27T10:35:55.777Z,8.15
2023-02-27T10:38:29.390Z,8.43
2023-02-27T10:40:57.885Z,8.54
2023-02-27T10:43:25.204Z,8.01
2023-02-27T10:45:52.982Z,8.42
2023-02-27T10:48:20.637Z,8.30
2023-02-27T10:50:52.245Z,8.93
2023-02-27T10:53:23.399Z,9.08
2023-02-27T10:56:04.211Z,9.40
2023-02-27T10:58:34.656Z,9.22
2023-02-27T11:01:04.019Z,9.27
2023-02-27T11:03:35.972Z,9.25
2023-02-27T11:06:07.477Z,8.89
2023-02-27T11:08:34.885Z,9.65
2023-02-27T11:11:06.266Z,9.40
2023-02-27T11:13:35.070Z,9.58
2023-02-27T11:16:05.255Z,8.88
2023-02-27T11:18:32.508Z,9.04
2023-02-27T11:21:17.978Z,9.51
2023-02-27T11:23:51.063Z,10.02
2023-02-27T11:26:40.690Z,9.65
2023-02-27T11:29:15.052Z,9.72
2023-02-27T11:31:48.704Z,10.20
2023-02-27T11:34:27.246Z,10.68
2023-02-27T11:36:56.800Z,10.60
2023-02-27T11:39:29.275Z,11.00
2023-02-27T11:41:57.159Z,11.16
2023-02-27T11:44:50.175Z,10.52
2023-02-27T11:47:17.131Z,10.68
2023-02-27T11:49:56.586Z,11.03
2023-02-27T11:52:25.717Z,10.93
2023-02-27T11:54:54.563Z,11.62
2023-02-27T11:57:22.276Z,11.14
2023-02-27T11:59:51.030Z,11.47
2023-02-27T12:02:30.493Z,11.46
2023-02-27T12:05:07.058Z,11.87
2023-02-27T12:07:34.206Z,12.20
2023-02-27T12:10:04.677Z,12.43
2023-02-27T12:12:57.917Z,12.06
2023-02-27T12:15:28.382Z,12.34
2023-02-27T12:18:10.756Z,12.29
2023-02-27T12:20:40.945Z,11.98
2023-02-27T12:23:14.761Z,12.57
2023-02-27T12:25:52.735Z,12.50
2023-02-27T12:28:46.406Z,12.25
2023-02-27T12:31:22.840Z,11.77
2023-02-27T12:33:52.523Z,11.15
2023-02-27T12:36:20.006Z,11.62
2023-02-27T12:38:47.184Z,10.67
2023-02-27T12:41:14.483Z,11.34
2023-02-27T12:43:46.277Z,10.82
2023-02-27T12:46:13.447Z,11.86
2023-02-27T12:48:56.533Z,11.35
2023-02-27T12:51:32.159Z,11.02
2023-02-27T12:53:59.233Z,10.98
2023-02-27T12:56:29.566Z,11.30
2023-02-27T12:58:56.846Z,10.79
2023-02-27T13:01:31.514Z,10.84
2023-02-27T13:04:07.485Z,10.39
2023-02-27T13:06:38.182Z,10.92
2023-02-27T13:09:08.805Z,11.40
2023-02-27T13:11:43.287Z,10.84
2023-02-27T13:14:29.386Z,10.80
2023-02-27T13:16:57.483Z,10.84
2023-02-27T13:19:26.901Z,11.60
2023-02-27T13:21:54.755Z,10.99
2023-02-27T13:24:28.923Z,10.67
2023-02-27T13:26:56.380Z,10.43
2023-02-27T13:29:24.584Z,10.98
2023-02-27T13:31:54.892Z,11.41
2023-02-27T13:34:22.384Z,10.80
2023-02-27T13:36:51.311Z,10.96
2023-02-27T13:39:36.826Z,11.32
2023-02-27T13:42:04.282Z,10.86
2023-02-27T13:44:39.219Z,10.54
2023-02-27T13:47:25.126Z,11.23
2023-02-27T13:49:52.466Z,11.29
2023-02-27T13:52:27.562Z,10.92
2023-02-27T13:54:57.293Z,10.76
2023-02-27T13:57:31.794Z,10.60
2023-02-27T14:00:09.056Z,10.88
2023-02-27T14:02:58.316Z,11.34
2023-02-27T14:05:30.292Z,10.78
2023-02-27T14:07:58.758Z,10.54
2023-02-27T14:10:27.261Z,9.91
2023-02-27T14:12:54.922Z,8.98
2023-02-27T14:15:22.037Z,9.39
2023-02-27T14:17:59.629Z,9.26
2023-02-27T14:20:33.156Z,9.48
2023-02-27T14:23:06.637Z,8.62
2023-02-27T14:25:47.089Z,8.31
2023-02-27T14:28:22.196Z,8.78
2023-02-27T14:31:03.320Z,8.82
2023-02-27T14:33:40.623Z,8.70
2023-02-27T14:36:20.039Z,7.54
2023-02-27T14:38:47.397Z,7.99
2023-02-27T14:41:23.155Z,8.14
2023-02-27T14:43:55.982Z,8.02
2023-02-27T14:46:23.638Z,7.93
2023-02-27T14:49:13.864Z,8.12
2023-02-27T14:51:41.318Z,8.59
2023-02-27T14:54:15.865Z,8.51
2023-02-27T14:56:55.424Z,8.75
2023-02-27T14:59:30.458Z,8.65
2023-02-27T15:01:58.461Z,9.26
2023-02-27T15:04:29.315Z,8.67
2023-02-27T15:06:56.624Z,8.69
2023-02-27T15:09:35.874Z,8.88
2023-02-27T15:12:04.618Z,9.02
2023-02-27T15:14:34.185Z,8.66
2023-02-27T15:17:01.666Z,8.50
2023-02-27T15:19:29.529Z,8.15
2023-02-27T15:22:02.237Z,8.82
2023-02-27T15:24:47.918Z,8.91
2023-02-27T15:27:18.476Z,7.62
2023-02-27T15:29:49.909Z,9.31
2023-02-27T15:32:46.693Z,9.36
2023-02-27T15:35:24.380Z,9.29
2023-02-27T15:37:52.460Z,9.58
2023-02-27T15:40:20.749Z,9.73
2023-02-27T15:42:48.077Z,9.48
2023-02-27T15:45:17.406Z,9.93
2023-02-27T15:47:44.610Z,10.04
2023-02-27T15:50:23.319Z,9.66
2023-02-27T15:52:50.695Z,9.76
2023-02-27T15:55:38.102Z,9.96
2023-02-27T15:58:08.540Z,9.90
2023-02-27T16:00:35.799Z,9.82
2023-02-27T16:03:04.077Z,9.12
2023-02-27T16:05:33.969Z,9.59
2023-02-27T16:08:02.627Z,9.83
2023-02-27T16:10:30.910Z,9.99
2023-02-27T16:12:58.085Z,10.15
2023-02-27T16:15:36.379Z,10.04
2023-02-27T16:18:07.816Z,10.39
2023-02-27T16:20:40.913Z,10.46
2023-02-27T16:23:27.776Z,10.60
2023-02-27T16:26:01.110Z,10.57
2023-02-27T16:28:48.813Z,10.62
2023-02-27T16:31:22.817Z,10.93
2023-02-27T16:33:50.577Z,10.87
2023-02-27T16:36:19.004Z,10.85
2023-02-27T16:38:46.472Z,10.92
2023-02-27T16:41:17.416Z,11.12
2023-02-27T16:43:46.124Z,11.14
2023-02-27T16:46:19.886Z,11.10
2023-02-27T16:48:51.202Z,11.01
2023-02-27T16:51:19.859Z,10.91
2023-02-27T16:53:47.674Z,11.19
2023-02-27T16:56:15.045Z,11.18
2023-02-27T16:58:42.851Z,11.35
2023-02-27T17:01:10.122Z,11.37
2023-02-27T17:03:37.334Z,11.43
2023-02-27T17:06:05.148Z,11.44
2023-02-27T17:08:32.304Z,11.42
2023-02-27T17:10:59.539Z,11.51
2023-02-27T17:13:26.964Z,11.37
2023-02-27T17:15:54.131Z,11.35
2023-02-27T17:18:21.367Z,11.24
2023-02-27T17:20:51.156Z,11.33
2023-02-27T17:23:18.543Z,11.37
2023-02-27T17:25:45.891Z,11.28
2023-02-27T17:28:13.328Z,11.39
2023-02-27T17:30:40.894Z,11.42
2023-02-27T17:33:08.114Z,11.35
2023-02-27T17:35:35.717Z,11.35
2023-02-27T17:38:02.934Z,11.41
2023-02-27T17:40:30.480Z,11.33
2023-02-27T17:42:57.924Z,11.41
2023-02-27T17:45:27.162Z,11.48
2023-02-27T17:47:54.433Z,11.51
2023-02-27T17:50:21.994Z,11.37
2023-02-27T17:52:49.285Z,11.48
2023-02-27T17:55:16.970Z,11.49
2023-02-27T17:57:44.428Z,11.49
2023-02-27T18:00:14.402Z,11.37
2023-02-27T18:02:43.609Z,11.18
2023-02-27T18:05:10.818Z,11.10
2023-02-27T18:07:38.109Z,11.09
2023-02-27T18:10:06.214Z,11.17
2023-02-27T18:12:33.441Z,11.14
2023-02-27T18:15:00.898Z,11.34
2023-02-27T18:17:28.953Z,11.27
2023-02-27T18:19:58.019Z,11.21
2023-02-27T18:22:25.442Z,11.07
2023-02-27T18:24:53.962Z,11.03
2023-02-27T18:27:22.210Z,11.00
2023-02-27T18:29:49.826Z,10.94
2023-02-27T18:32:18.267Z,10.99
2023-02-27T18:34:45.783Z,10.83
2023-02-27T18:37:13.112Z,10.68
2023-02-27T18:39:42.204Z,10.58
2023-02-27T18:42:09.422Z,10.62
2023-02-27T18:44:38.557Z,10.54
2023-02-27T18:47:06.967Z,10.13
2023-02-27T18:49:34.132Z,10.10
2023-02-27T18:52:01.726Z,9.99
2023-02-27T18:54:29.574Z,9.93
2023-02-27T18:56:56.776Z,9.56
2023-02-27T18:59:24.128Z,9.65
2023-02-27T19:01:51.837Z,8.89
2023-02-27T19:04:19.055Z,7.00
2023-02-27T19:06:46.671Z,6.76
2023-02-27T19:09:16.252Z,6.57
2023-02-27T19:11:44.510Z,7.47
2023-02-27T19:14:12.368Z,7.97
2023-02-27T19:16:40.240Z,6.82
2023-02-27T19:19:09.767Z,6.52
2023-02-27T19:21:37.182Z,6.72
2023-02-27T19:24:04.977Z,5.86
2023-02-27T19:26:32.896Z,5.83
2023-02-27T19:29:00.261Z,5.78
2023-02-27T19:31:28.631Z,6.22
2023-02-27T19:33:56.128Z,6.75
2023-02-27T19:36:23.909Z,6.01
2023-02-27T19:38:52.574Z,6.69
2023-02-27T19:41:20.625Z,6.52
2023-02-27T19:43:47.886Z,6.75
2023-02-27T19:46:17.432Z,7.02
2023-02-27T19:48:45.348Z,6.51
2023-02-27T19:51:13.873Z,6.57
2023-02-27T19:53:42.208Z,6.52
2023-02-27T19:56:11.106Z,5.40
2023-02-27T19:58:39.306Z,5.58
2023-02-27T20:01:07.015Z,5.47
2023-02-27T20:03:34.621Z,5.04
2023-02-27T20:06:06.302Z,4.14
2023-02-27T20:08:34.696Z,4.73
2023-02-27T20:11:05.003Z,4.83
2023-02-27T20:13:32.364Z,4.19
2023-02-27T20:16:01.231Z,4.67
2023-02-27T20:18:29.929Z,5.99
2023-02-27T20:21:30.049Z,5.48
2023-02-27T20:23:58.139Z,5.16
2023-02-27T20:26:29.995Z,5.07
2023-02-27T20:28:59.343Z,4.88
2023-02-27T20:31:28.518Z,5.27
2023-02-27T20:33:57.131Z,5.79
2023-02-27T20:36:24.837Z,5.37
2023-02-27T20:38:52.675Z,5.47
2023-02-27T20:41:20.714Z,6.35
2023-02-27T20:43:49.310Z,5.88
2023-02-27T20:46:18.810Z,5.88
2023-02-27T20:48:46.486Z,6.49
2023-02-27T20:51:19.957Z,6.78
2023-02-27T20:53:48.306Z,6.02
2023-02-27T20:56:15.717Z,6.70
2023-02-27T20:58:44.085Z,7.04
2023-02-27T21:01:11.924Z,7.32
2023-02-27T21:03:39.813Z,6.62
2023-02-27T21:06:07.910Z,6.58
2023-02-27T21:08:38.477Z,6.42
2023-02-27T21:11:06.659Z,7.37
2023-02-27T21:13:33.889Z,7.48
2023-02-27T21:16:01.247Z,7.29
2023-02-27T21:18:28.720Z,7.02
2023-02-27T21:20:58.157Z,7.36
2023-02-27T21:23:25.337Z,7.61
2023-02-27T21:25:53.699Z,6.42
2023-02-27T21:28:20.994Z,7.42
2023-02-27T21:30:48.236Z,7.93
2023-02-27T21:33:15.692Z,6.93
2023-02-27T21:35:46.711Z,5.62
2023-02-27T21:38:14.103Z,7.03
2023-02-27T21:40:41.746Z,7.77
2023-02-27T21:43:09.180Z,7.89
2023-02-27T21:45:41.520Z,6.40
2023-02-27T21:48:08.953Z,6.37
2023-02-27T21:50:36.648Z,6.34
2023-02-27T21:53:03.777Z,6.67
2023-02-27T21:55:31.218Z,6.26
2023-02-27T21:57:58.332Z,5.80
2023-02-27T22:00:28.511Z,6.15
2023-02-27T22:02:55.948Z,6.87
2023-02-27T22:05:23.162Z,6.02
2023-02-27T22:07:50.291Z,6.12
2023-02-27T22:10:17.727Z,5.44
2023-02-27T22:12:44.893Z,6.24
2023-02-27T22:15:12.131Z,6.86
2023-02-27T22:17:39.525Z,6.88
2023-02-27T22:20:07.204Z,7.50
2023-02-27T22:22:34.382Z,7.33
2023-02-27T22:25:01.906Z,7.80
2023-02-27T22:27:29.092Z,8.03
2023-02-27T22:29:56.203Z,8.01
2023-02-27T22:32:23.703Z,8.19
2023-02-27T22:34:51.129Z,8.19
2023-02-27T22:37:19.838Z,8.25
2023-02-27T22:39:47.335Z,8.51
2023-02-27T22:42:14.612Z,8.57
2023-02-27T22:44:41.774Z,8.64
2023-02-27T22:47:10.156Z,8.46
2023-02-27T22:49:39.101Z,8.38
2023-02-27T22:52:06.230Z,8.51
2023-02-27T22:54:33.657Z,8.73
2023-02-27T22:57:00.809Z,8.79
2023-02-27T22:59:28.016Z,8.88
2023-02-27T23:01:55.450Z,8.83
2023-02-27T23:04:22.716Z,8.88
2023-02-27T23:06:52.261Z,8.87
2023-02-27T23:09:21.002Z,8.80
2023-02-27T23:11:48.254Z,8.76
2023-02-27T23:14:15.705Z,8.77
2023-02-27T23:16:46.676Z,8.82
2023-02-27T23:19:14.835Z,8.77
2023-02-27T23:21:42.002Z,8.90
2023-02-27T23:24:10.525Z,8.79
2023-02-27T23:26:38.534Z,8.75
2023-02-27T23:29:06.209Z,8.92
2023-02-27T23:31:35.425Z,8.97
2023-02-27T23:34:03.804Z,8.88
2023-02-27T23:36:30.951Z,8.90
2023-02-27T23:38:59.296Z,8.72
2023-02-27T23:41:26.820Z,8.83
2023-02-27T23:43:54.356Z,8.88
2023-02-27T23:46:21.759Z,9.03
2023-02-27T23:48:48.942Z,9.03
2023-02-27T23:51:16.222Z,9.09
2023-02-27T23:53:43.614Z,9.06
2023-02-27T23:56:16.818Z,8.95
2023-02-27T23:58:44.563Z,8.93
